createdAt,value
2022-12-09T00:00:21.366Z,2.14
2022-12-09T00:05:45.560Z,2.38
2022-12-09T00:10:45.432Z,2.18
2022-12-09T00:15:48.126Z,2.13
2022-12-09T00:21:11.128Z,2.11
2022-12-09T00:26:33.095Z,1.93
2022-12-09T00:37:23.148Z,1.85
2022-12-09T00:49:19.022Z,1.83
2022-12-09T01:28:22.471Z,2.01
2022-12-09T01:34:03.312Z,1.74
2022-12-09T01:39:23.454Z,1.96
2022-12-09T01:51:34.971Z,1.87
2022-12-09T02:03:38.026Z,2.06
2022-12-09T03:11:36.523Z,2.39
2022-12-09T03:36:22.420Z,2.66
2022-12-09T03:42:05.061Z,2.60
2022-12-09T04:00:12.730Z,2.72
2022-12-09T04:05:40.869Z,2.54
2022-12-09T04:16:52.464Z,2.41
2022-12-09T04:21:58.279Z,2.58
2022-12-09T04:27:02.997Z,2.42
2022-12-09T04:32:16.665Z,2.30
2022-12-09T04:37:16.753Z,2.06
2022-12-09T04:47:59.687Z,2.11
2022-12-09T04:53:03.746Z,2.04
2022-12-09T04:59:18.700Z,2.01
2022-12-09T05:04:58.263Z,1.71
2022-12-09T05:16:31.770Z,1.82
2022-12-09T05:21:56.973Z,1.91
2022-12-09T05:34:46.877Z,1.62
2022-12-09T05:40:13.067Z,1.75
2022-12-09T05:45:36.759Z,1.84
2022-12-09T05:57:27.525Z,1.92
2022-12-09T06:43:04.349Z,2.61
2022-12-09T07:11:22.724Z,2.73
2022-12-09T07:16:20.987Z,2.53
2022-12-09T07:21:20.768Z,2.69
2022-12-09T07:26:23.489Z,2.70
2022-12-09T07:31:25.301Z,2.59
2022-12-09T07:42:51.752Z,2.52
2022-12-09T07:47:56.037Z,2.60
2022-12-09T08:09:38.610Z,2.79
2022-12-09T08:19:50.005Z,2.66
2022-12-09T08:35:29.326Z,2.53
2022-12-09T08:57:11.355Z,2.80
2022-12-09T09:02:13.678Z,2.79
2022-12-09T09:32:52.184Z,2.81
2022-12-09T09:38:23.765Z,2.91
2022-12-09T09:43:45.254Z,3.07
2022-12-09T09:54:35.152Z,3.11
2022-12-09T09:59:42.881Z,2.79
2022-12-09T10:05:10.047Z,2.98
2022-12-09T10:10:50.543Z,2.94
2022-12-09T10:16:02.740Z,2.62
2022-12-09T10:21:00.075Z,2.77
2022-12-09T10:26:04.415Z,2.67
2022-12-09T10:31:05.354Z,2.68
2022-12-09T11:02:31.153Z,2.46
2022-12-09T11:07:41.123Z,2.61
2022-12-09T11:48:25.842Z,3.07
2022-12-09T11:53:34.960Z,3.15
2022-12-09T12:46:19.328Z,2.91
2022-12-09T13:03:37.271Z,2.87
2022-12-09T13:08:37.263Z,3.11
2022-12-09T13:20:12.677Z,3.00
2022-12-09T13:46:35.021Z,3.05
2022-12-09T14:15:25.082Z,3.15
2022-12-09T14:41:33.410Z,3.27
2022-12-09T14:46:37.619Z,3.07
2022-12-09T14:56:55.477Z,3.07
2022-12-09T15:07:23.179Z,3.33
2022-12-09T15:17:39.349Z,3.21
2022-12-09T16:00:47.265Z,2.77
2022-12-09T16:05:44.315Z,2.55
2022-12-09T16:11:26.009Z,2.72
2022-12-09T16:40:29.582Z,2.18
2022-12-09T16:45:48.063Z,2.07
2022-12-09T16:56:26.923Z,2.20
2022-12-09T17:01:27.144Z,2.18
2022-12-09T17:06:29.792Z,1.87
2022-12-09T17:16:47.267Z,1.99
2022-12-09T17:32:54.222Z,1.71
2022-12-09T17:37:50.571Z,1.89
2022-12-09T17:42:47.114Z,1.78
2022-12-09T17:47:43.604Z,1.69
2022-12-09T17:52:41.434Z,1.68
2022-12-09T17:57:37.992Z,1.55
2022-12-09T18:02:34.622Z,1.62
2022-12-09T18:07:31.214Z,1.53
2022-12-09T18:12:27.861Z,1.49
2022-12-09T18:17:26.702Z,1.57
2022-12-09T18:22:23.276Z,1.39
2022-12-09T18:27:19.785Z,1.44
2022-12-09T18:32:16.264Z,1.49
2022-12-09T18:37:13.669Z,1.37
2022-12-09T18:42:10.128Z,1.47
2022-12-09T18:47:06.615Z,1.39
2022-12-09T18:52:03.563Z,1.30
2022-12-09T18:57:01.785Z,1.33
2022-12-09T19:01:58.984Z,1.31
2022-12-09T19:06:57.627Z,1.27
2022-12-09T19:11:54.511Z,1.18
2022-12-09T19:16:51.874Z,1.10
2022-12-09T19:21:48.784Z,1.05
2022-12-09T19:26:45.544Z,1.01
2022-12-09T19:31:46.440Z,1.15
2022-12-09T19:36:43.495Z,1.11
2022-12-09T19:41:40.433Z,1.08
2022-12-09T19:46:38.416Z,1.22
2022-12-09T19:51:35.087Z,1.18
2022-12-09T19:56:31.614Z,1.12
2022-12-09T20:01:30.862Z,1.16
2022-12-09T20:06:27.808Z,1.18
2022-12-09T20:11:25.762Z,1.27
2022-12-09T20:16:23.264Z,1.24
2022-12-09T20:21:20.718Z,1.26
2022-12-09T20:26:23.058Z,1.43
2022-12-09T20:31:30.614Z,1.43
2022-12-09T20:36:29.640Z,1.55
2022-12-09T20:41:27.344Z,1.40
2022-12-09T20:46:28.757Z,1.59
2022-12-09T20:51:33.695Z,1.60
2022-12-09T20:56:30.197Z,1.52
2022-12-09T21:01:31.718Z,1.53
2022-12-09T21:06:33.294Z,1.74
2022-12-09T21:11:29.819Z,1.71
2022-12-09T21:16:29.168Z,1.67
2022-12-09T21:21:26.911Z,1.85
2022-12-09T21:26:24.788Z,1.69
2022-12-09T21:31:24.270Z,1.82
2022-12-09T21:36:23.693Z,1.83
2022-12-09T21:41:23.103Z,1.70
2022-12-09T21:46:21.675Z,1.88
2022-12-09T21:51:18.204Z,1.85
2022-12-09T21:56:17.071Z,1.87
2022-12-09T22:01:21.633Z,1.93
2022-12-09T22:06:18.513Z,1.85
2022-12-09T22:11:21.086Z,2.00
2022-12-09T22:16:20.517Z,1.84
2022-12-09T22:21:27.760Z,2.04
2022-12-09T22:26:24.667Z,1.89
2022-12-09T22:31:24.712Z,1.94
2022-12-09T22:36:22.308Z,1.85
2022-12-09T22:41:21.689Z,1.83
2022-12-09T22:46:22.244Z,1.81
2022-12-09T22:51:21.773Z,1.90
2022-12-09T22:56:19.040Z,1.75
2022-12-09T23:01:18.445Z,1.81
2022-12-09T23:06:15.204Z,1.89
2022-12-09T23:11:15.057Z,1.75
2022-12-09T23:16:15.228Z,1.85
2022-12-09T23:21:14.010Z,1.74
2022-12-09T23:26:12.684Z,1.77
2022-12-09T23:31:10.865Z,1.75
2022-12-09T23:36:09.464Z,1.72
2022-12-09T23:41:06.343Z,1.67
2022-12-09T23:46:05.375Z,1.71
2022-12-09T23:51:20.531Z,1.68
2022-12-09T23:56:19.579Z,1.61
